Time;durP1;ratioP1;P1;durP2;ratioP2;P2;SDS_P1;SDS_P2;PMS_P1;PMS_P2;Temp;Humidity;BMP_temperature;BMP_pressure;BME280_temperature;BME280_humidity;BME280_pressure;Samples;Min_cycle;Max_cycle;Signal;HPM_P1;HPM_P2
2022/01/20 00:01:41;;;;;;;37.70;28.77;;;24.70;99.90;;;;;;5055065;28;20060;-75
2022/01/20 00:04:17;;;;;;;43.78;32.65;;;24.70;99.90;;;;;;5054411;28;20053;-73
2022/01/20 00:23:11;;;;;;;34.83;29.70;;;24.70;99.90;;;;;;5054502;28;20025;-75
2022/01/20 00:28:15;;;;;;;29.38;21.50;;;24.70;99.90;;;;;;5053819;28;20029;-75
2022/01/20 00:30:50;;;;;;;40.70;28.70;;;24.80;99.90;;;;;;5054513;28;20089;-75
2022/01/20 00:33:32;;;;;;;30.23;23.38;;;24.80;99.90;;;;;;5054789;28;20100;-73
2022/01/20 00:38:29;;;;;;;32.10;26.73;;;24.80;99.90;;;;;;5054485;28;20021;-74
2022/01/20 00:40:55;;;;;;;29.70;25.10;;;24.80;99.90;;;;;;5054271;28;20029;-74
2022/01/20 00:43:23;;;;;;;34.47;24.55;;;24.90;99.90;;;;;;5054588;28;20059;-73
2022/01/20 00:45:51;;;;;;;34.33;26.13;;;24.90;99.90;;;;;;5054664;28;20041;-74
2022/01/20 00:48:18;;;;;;;38.30;25.90;;;24.90;99.90;;;;;;5054331;28;20100;-74
2022/01/20 00:50:45;;;;;;;31.50;24.98;;;24.90;99.90;;;;;;5054017;28;20109;-74
2022/01/20 00:53:11;;;;;;;34.15;30.48;;;24.90;99.90;;;;;;5054102;28;20048;-74
2022/01/20 00:55:39;;;;;;;49.20;34.45;;;25.00;99.90;;;;;;5054096;28;20029;-74
2022/01/20 00:58:06;;;;;;;219.88;159.55;;;25.00;99.90;;;;;;5054034;28;20070;-76
2022/01/20 01:00:33;;;;;;;87.18;65.20;;;25.00;99.90;;;;;;5054038;28;20109;-74
2022/01/20 01:03:00;;;;;;;82.65;64.75;;;25.00;99.90;;;;;;5054369;28;20096;-73
2022/01/20 01:05:27;;;;;;;59.00;44.10;;;25.00;99.90;;;;;;5053610;28;20016;-75
2022/01/20 01:07:56;;;;;;;54.15;43.00;;;25.00;99.90;;;;;;5054082;28;20105;-74
2022/01/20 01:10:27;;;;;;;38.13;26.90;;;25.00;99.90;;;;;;5053916;28;20033;-74
2022/01/20 01:13:11;;;;;;;34.10;27.55;;;25.00;99.90;;;;;;5052931;28;20036;-75
2022/01/20 01:15:43;;;;;;;32.65;27.85;;;25.10;99.90;;;;;;5053808;28;20548;-75
2022/01/20 01:23:31;;;;;;;23.77;21.25;;;25.20;99.90;;;;;;5046271;28;20029;-74
2022/01/20 01:25:58;;;;;;;27.55;21.73;;;25.20;99.90;;;;;;5053413;28;20033;-73
2022/01/20 01:28:30;;;;;;;25.75;20.38;;;25.20;99.90;;;;;;5053327;28;20032;-74
2022/01/20 01:33:39;;;;;;;24.42;18.83;;;25.20;99.90;;;;;;5052997;28;20025;-75
2022/01/20 01:36:08;;;;;;;21.85;18.67;;;25.30;99.90;;;;;;5053430;28;20033;-73
2022/01/20 01:38:39;;;;;;;28.92;20.40;;;25.30;99.90;;;;;;5053342;28;20123;-74
2022/01/20 01:41:10;;;;;;;26.48;17.85;;;25.30;99.90;;;;;;5053301;28;20070;-74
2022/01/20 01:43:41;;;;;;;23.50;16.85;;;25.40;99.90;;;;;;5052849;28;20044;-75
2022/01/20 01:46:08;;;;;;;20.33;17.60;;;25.40;99.90;;;;;;5052520;28;20549;-75
2022/01/20 01:48:35;;;;;;;23.88;18.80;;;25.40;99.90;;;;;;5052788;28;20414;-77
2022/01/20 01:51:02;;;;;;;13.93;10.98;;;25.50;99.90;;;;;;5053233;28;20029;-74
2022/01/20 01:53:29;;;;;;;14.25;12.45;;;25.50;99.90;;;;;;5052598;28;20060;-73
2022/01/20 01:55:56;;;;;;;12.95;11.10;;;25.50;99.90;;;;;;5052838;28;20526;-72
2022/01/20 01:58:23;;;;;;;106.00;78.88;;;25.50;99.90;;;;;;5052973;28;20061;-71
2022/01/20 02:00:50;;;;;;;21.58;15.95;;;25.50;99.90;;;;;;5053017;28;20046;-72
2022/01/20 02:03:17;;;;;;;19.13;13.23;;;25.50;99.90;;;;;;5053177;28;20052;-73
2022/01/20 02:06:00;;;;;;;22.02;13.63;;;25.50;99.90;;;;;;5053180;28;20029;-73
2022/01/20 02:08:44;;;;;;;18.92;13.40;;;25.50;99.90;;;;;;5053020;28;20464;-70
2022/01/20 02:19:07;;;;;;;17.88;14.98;;;25.60;99.90;;;;;;5052317;28;20032;-72
2022/01/20 02:21:46;;;;;;;28.05;17.52;;;25.60;99.90;;;;;;5052341;28;20463;-72
2022/01/20 02:24:13;;;;;;;21.40;19.02;;;25.60;99.90;;;;;;5052144;28;20029;-73
2022/01/20 02:26:40;;;;;;;80.80;64.70;;;25.60;99.90;;;;;;5052743;28;20390;-72
2022/01/20 02:29:07;;;;;;;74.28;57.75;;;25.60;99.90;;;;;;5052788;28;20060;-72
2022/01/20 02:31:34;;;;;;;33.75;21.35;;;25.70;99.90;;;;;;5052466;28;20033;-74
2022/01/20 02:34:01;;;;;;;24.05;20.60;;;25.70;99.90;;;;;;5052772;28;20032;-70
2022/01/20 02:36:28;;;;;;;35.92;25.73;;;25.80;99.90;;;;;;5052728;28;20021;-71
2022/01/20 02:39:01;;;;;;;27.95;19.67;;;25.70;99.90;;;;;;5052574;28;20033;-73
2022/01/20 02:46:29;;;;;;;23.92;18.75;;;25.80;99.90;;;;;;5052356;28;20052;-72
2022/01/20 02:48:55;;;;;;;20.77;18.13;;;25.80;99.90;;;;;;5052506;28;20032;-72
2022/01/20 02:51:23;;;;;;;22.50;17.67;;;25.80;99.90;;;;;;5052075;28;20569;-72
2022/01/20 02:53:50;;;;;;;18.98;15.50;;;25.90;99.90;;;;;;5052047;28;20033;-72
2022/01/20 02:56:16;;;;;;;21.35;15.68;;;25.90;99.90;;;;;;5048514;28;20032;-72
2022/01/20 02:58:43;;;;;;;18.17;14.68;;;26.00;99.90;;;;;;5054193;28;20041;-70
2022/01/20 03:01:10;;;;;;;15.20;13.50;;;26.00;99.90;;;;;;5056023;28;20067;-73
2022/01/20 03:03:37;;;;;;;18.30;13.57;;;26.00;99.90;;;;;;5056126;28;20104;-72
2022/01/20 03:06:05;;;;;;;18.08;13.70;;;26.00;99.90;;;;;;5055907;28;20051;-73
2022/01/20 03:08:32;;;;;;;17.95;14.90;;;26.10;99.90;;;;;;5055767;28;20383;-72
2022/01/20 03:10:58;;;;;;;21.02;14.93;;;26.10;99.90;;;;;;5056215;28;20096;-73
2022/01/20 03:13:25;;;;;;;21.67;16.60;;;26.10;99.90;;;;;;5055681;28;20422;-74
2022/01/20 03:15:52;;;;;;;25.92;19.42;;;26.20;99.90;;;;;;5054992;28;20017;-72
2022/01/20 03:18:19;;;;;;;26.00;20.85;;;26.20;99.90;;;;;;5055676;28;20467;-72
2022/01/20 03:20:46;;;;;;;22.15;15.23;;;26.20;99.90;;;;;;5055870;28;20025;-72
2022/01/20 03:23:12;;;;;;;21.25;14.95;;;26.20;99.90;;;;;;5055510;28;20029;-72
2022/01/20 03:25:39;;;;;;;14.68;10.70;;;26.30;99.90;;;;;;5055727;28;20029;-72
2022/01/20 03:28:06;;;;;;;17.83;13.43;;;26.30;99.90;;;;;;5055379;28;20104;-71
2022/01/20 03:30:34;;;;;;;20.38;14.10;;;26.30;99.90;;;;;;5055796;28;20028;-72
2022/01/20 03:33:01;;;;;;;19.08;14.88;;;26.40;99.90;;;;;;5055418;28;20029;-73
2022/01/20 03:35:28;;;;;;;22.75;16.67;;;26.40;99.90;;;;;;5050928;28;20330;-73
2022/01/20 03:37:55;;;;;;;21.45;16.10;;;26.50;99.90;;;;;;5044182;28;20127;-72
2022/01/20 03:40:23;;;;;;;23.85;17.88;;;26.50;99.90;;;;;;5055365;28;20476;-72
2022/01/20 03:42:50;;;;;;;24.50;18.58;;;26.60;99.90;;;;;;5042940;28;20116;-70
2022/01/20 03:45:17;;;;;;;23.30;18.92;;;26.60;99.90;;;;;;5047850;28;20099;-73
2022/01/20 03:47:44;;;;;;;25.38;18.65;;;26.60;99.90;;;;;;5055207;28;20111;-71
2022/01/20 03:52:49;;;;;;;30.73;22.83;;;26.70;99.90;;;;;;5055016;28;20116;-72
2022/01/20 03:55:16;;;;;;;25.30;21.30;;;26.80;99.90;;;;;;5042019;28;20056;-71
2022/01/20 03:57:43;;;;;;;31.35;21.90;;;26.80;99.90;;;;;;5054664;28;20047;-73
2022/01/20 04:00:10;;;;;;;27.83;22.70;;;26.90;99.90;;;;;;5054792;28;20013;-72
2022/01/20 04:02:37;;;;;;;33.90;23.88;;;26.90;99.90;;;;;;5054792;28;20017;-71
2022/01/20 04:05:04;;;;;;;49.70;44.30;;;26.90;99.90;;;;;;5054877;28;20360;-73
2022/01/20 04:07:30;;;;;;;33.15;23.00;;;27.00;99.90;;;;;;5054789;28;20037;-72
2022/01/20 04:09:57;;;;;;;29.45;22.15;;;27.00;99.90;;;;;;5053738;28;20081;-70
2022/01/20 04:12:24;;;;;;;33.15;21.15;;;27.00;99.90;;;;;;5054900;28;20024;-72
2022/01/20 04:14:51;;;;;;;25.70;21.77;;;27.00;99.90;;;;;;5036169;28;20021;-70
2022/01/20 04:17:19;;;;;;;27.15;18.65;;;27.10;99.90;;;;;;5054756;28;20374;-71
2022/01/20 04:19:47;;;;;;;20.95;17.05;;;27.10;99.90;;;;;;5054490;28;20017;-69
2022/01/20 04:22:14;;;;;;;23.10;17.55;;;27.20;99.90;;;;;;5054527;28;20160;-69
2022/01/20 04:24:40;;;;;;;21.75;17.45;;;27.30;99.90;;;;;;5054563;28;20414;-69
2022/01/20 04:27:07;;;;;;;21.17;15.65;;;27.30;99.90;;;;;;5054767;28;20379;-71
2022/01/20 04:29:34;;;;;;;23.55;16.17;;;27.40;99.90;;;;;;5053989;28;20028;-70
2022/01/20 04:32:01;;;;;;;26.92;17.70;;;27.40;99.90;;;;;;5050800;28;20108;-73
2022/01/20 04:34:28;;;;;;;21.63;16.90;;;27.50;99.90;;;;;;5038340;28;20396;-71
2022/01/20 04:36:55;;;;;;;21.17;16.50;;;27.60;99.90;;;;;;5054024;28;20047;-75
2022/01/20 04:39:25;;;;;;;19.92;16.63;;;27.60;99.90;;;;;;5051289;28;20059;-74
2022/01/20 04:41:53;;;;;;;24.35;17.65;;;27.50;99.90;;;;;;5054500;28;20037;-76
2022/01/20 04:44:35;;;;;;;20.13;16.23;;;27.50;99.90;;;;;;5053615;28;20017;-75
2022/01/20 04:57:35;;;;;;;17.35;12.77;;;27.90;99.90;;;;;;5050333;28;20021;-74
2022/01/20 05:00:03;;;;;;;11.80;10.10;;;27.80;99.90;;;;;;5053302;28;20036;-74
2022/01/20 05:02:30;;;;;;;10.02;8.68;;;27.80;99.90;;;;;;5053467;28;20029;-73
2022/01/20 05:04:57;;;;;;;11.40;8.05;;;27.80;99.90;;;;;;5029833;28;20081;-74
2022/01/20 05:07:26;;;;;;;15.55;10.52;;;27.80;99.90;;;;;;5047296;28;20120;-75
2022/01/20 05:09:56;;;;;;;10.65;8.73;;;27.80;99.90;;;;;;5047746;28;20098;-74
2022/01/20 05:12:37;;;;;;;12.45;9.73;;;27.90;99.90;;;;;;5051833;28;20534;-73
2022/01/20 05:15:04;;;;;;;11.60;8.98;;;27.90;99.90;;;;;;5048305;28;20152;-73
2022/01/20 05:17:30;;;;;;;14.93;10.25;;;27.90;99.90;;;;;;5049862;28;20131;-73
2022/01/20 05:19:57;;;;;;;14.52;8.82;;;28.00;99.90;;;;;;5053311;28;20044;-70
2022/01/20 05:22:24;;;;;;;12.27;7.55;;;28.10;99.90;;;;;;5052912;28;20029;-74
2022/01/20 05:24:50;;;;;;;13.80;9.65;;;28.10;99.90;;;;;;5050149;28;20100;-72
2022/01/20 05:27:17;;;;;;;20.65;14.00;;;28.10;99.90;;;;;;5052204;28;20017;-73
2022/01/20 05:29:44;;;;;;;24.70;12.55;;;28.00;99.90;;;;;;5048097;28;20024;-73
2022/01/20 05:32:10;;;;;;;17.10;9.48;;;28.10;99.90;;;;;;5050462;28;20024;-73
2022/01/20 05:34:37;;;;;;;15.10;10.13;;;28.10;99.90;;;;;;5053056;28;20013;-72
2022/01/20 05:37:04;;;;;;;13.68;8.30;;;28.10;99.90;;;;;;5053327;28;20090;-73
2022/01/20 05:39:31;;;;;;;22.40;14.85;;;28.10;99.90;;;;;;5053866;28;20071;-71
2022/01/20 05:41:57;;;;;;;31.50;19.27;;;28.10;99.90;;;;;;5052592;28;20437;-68
2022/01/20 05:44:24;;;;;;;26.85;16.92;;;28.20;99.90;;;;;;5035834;28;20403;-69
2022/01/20 05:46:52;;;;;;;15.70;11.48;;;28.30;99.90;;;;;;5053032;28;20029;-71
2022/01/20 05:49:22;;;;;;;12.13;10.15;;;28.20;99.90;;;;;;5035999;28;20021;-69
2022/01/20 05:51:52;;;;;;;16.35;10.93;;;28.20;99.90;;;;;;5035149;28;20059;-71
2022/01/20 05:54:20;;;;;;;18.02;12.93;;;28.20;99.90;;;;;;5053438;28;20029;-70
2022/01/20 05:56:46;;;;;;;19.02;11.75;;;28.20;99.90;;;;;;5053014;28;20029;-70
2022/01/20 05:59:14;;;;;;;14.80;10.80;;;28.30;99.90;;;;;;5053088;28;20040;-69
2022/01/20 06:01:41;;;;;;;14.00;8.18;;;28.40;99.90;;;;;;5052973;28;20021;-69
2022/01/20 06:04:09;;;;;;;13.00;8.60;;;28.50;99.90;;;;;;5052939;28;20025;-68
2022/01/20 06:06:37;;;;;;;11.07;8.35;;;28.50;99.90;;;;;;5044134;28;20037;-68
2022/01/20 06:09:05;;;;;;;20.23;12.27;;;28.60;99.90;;;;;;5049401;28;20032;-71
2022/01/20 06:11:33;;;;;;;19.25;10.63;;;28.60;99.90;;;;;;5051863;28;20033;-71
2022/01/20 06:13:59;;;;;;;13.32;9.45;;;28.60;99.90;;;;;;5035897;28;20068;-71
2022/01/20 06:16:26;;;;;;;10.75;7.95;;;28.50;99.90;;;;;;5049003;28;20117;-68
2022/01/20 06:18:53;;;;;;;10.38;6.65;;;28.50;99.90;;;;;;5046198;28;20025;-71
2022/01/20 06:21:20;;;;;;;13.13;9.45;;;28.50;99.90;;;;;;5049358;28;20021;-69
2022/01/20 06:23:47;;;;;;;13.55;8.13;;;28.50;99.90;;;;;;5052499;28;20063;-70
2022/01/20 06:26:13;;;;;;;11.30;8.05;;;28.50;99.90;;;;;;5052520;28;20032;-68
2022/01/20 06:28:40;;;;;;;11.55;9.07;;;28.50;99.90;;;;;;5048678;28;20025;-69
2022/01/20 06:31:08;;;;;;;17.15;10.13;;;28.50;99.90;;;;;;5050606;28;20059;-69
2022/01/20 06:33:36;;;;;;;13.65;10.30;;;28.50;99.90;;;;;;5055012;28;20024;-69
2022/01/20 06:36:03;;;;;;;15.73;10.68;;;28.50;99.90;;;;;;5055665;28;20021;-70
2022/01/20 06:38:29;;;;;;;14.45;10.82;;;28.50;99.90;;;;;;5055547;28;20074;-72
2022/01/20 06:40:56;;;;;;;14.90;10.35;;;28.40;99.90;;;;;;5055281;28;20025;-71
2022/01/20 06:43:23;;;;;;;18.98;10.73;;;28.40;99.90;;;;;;5055367;28;20356;-70
2022/01/20 06:45:50;;;;;;;16.00;11.02;;;28.40;99.90;;;;;;5054769;28;20032;-72
2022/01/20 06:48:16;;;;;;;15.85;11.77;;;28.40;99.90;;;;;;5055370;28;20044;-71
2022/01/20 06:50:43;;;;;;;12.18;9.90;;;28.40;99.90;;;;;;5055177;28;20021;-71
2022/01/20 06:53:11;;;;;;;29.15;19.83;;;28.50;99.90;;;;;;5026391;28;20046;-71
2022/01/20 06:55:37;;;;;;;51.17;26.13;;;28.50;99.90;;;;;;5015464;28;20018;-70
2022/01/20 06:58:04;;;;;;;60.50;41.90;;;28.60;99.90;;;;;;5015566;28;20448;-70
2022/01/20 07:00:31;;;;;;;16.48;9.07;;;28.60;99.90;;;;;;5015340;28;20022;-68
2022/01/20 07:02:58;;;;;;;13.93;8.82;;;28.60;99.90;;;;;;5015458;28;20101;-70
2022/01/20 07:05:26;;;;;;;11.10;8.50;;;28.70;99.90;;;;;;5015273;28;20026;-71
2022/01/20 07:07:53;;;;;;;14.75;9.13;;;28.70;99.90;;;;;;5015329;28;20018;-71
2022/01/20 07:10:20;;;;;;;12.40;8.63;;;28.70;99.90;;;;;;5015277;28;20492;-71
2022/01/20 07:12:48;;;;;;;11.68;7.78;;;28.70;99.90;;;;;;5015224;28;20571;-70
2022/01/20 07:15:17;;;;;;;25.88;18.63;;;28.70;99.90;;;;;;5015429;28;20025;-70
2022/01/20 07:17:44;;;;;;;35.45;25.55;;;28.80;99.90;;;;;;5015227;28;20484;-71
2022/01/20 07:20:13;;;;;;;32.17;21.77;;;28.90;99.90;;;;;;5012261;28;20028;-70
2022/01/20 07:22:39;;;;;;;8.75;7.85;;;28.90;99.90;;;;;;5011484;28;20428;-71
2022/01/20 07:25:06;;;;;;;11.45;8.80;;;28.90;99.90;;;;;;5016350;28;20404;-71
2022/01/20 07:27:33;;;;;;;16.40;8.77;;;28.80;99.90;;;;;;5015815;28;20044;-70
2022/01/20 07:30:00;;;;;;;16.63;10.75;;;28.90;99.90;;;;;;5016130;28;20484;-69
2022/01/20 07:32:26;;;;;;;17.15;12.55;;;28.90;99.90;;;;;;5016158;28;20030;-69
2022/01/20 07:34:53;;;;;;;8.27;6.55;;;28.90;99.90;;;;;;5023783;28;20428;-71
2022/01/20 07:37:20;;;;;;;20.75;14.50;;;28.90;99.90;;;;;;5005515;28;20022;-70
2022/01/20 07:39:46;;;;;;;12.38;9.32;;;28.90;99.90;;;;;;5010987;28;20416;-72
2022/01/20 07:42:13;;;;;;;15.80;10.85;;;29.00;99.90;;;;;;5015823;28;20022;-71
2022/01/20 07:44:40;;;;;;;9.13;6.18;;;29.00;99.90;;;;;;5015170;28;20026;-70
2022/01/20 07:47:06;;;;;;;8.57;6.47;;;29.00;99.90;;;;;;5016063;28;20145;-70
2022/01/20 07:49:33;;;;;;;9.40;6.50;;;29.00;99.90;;;;;;5016074;28;20076;-69
2022/01/20 07:52:00;;;;;;;7.20;5.85;;;29.00;99.90;;;;;;5030850;28;20045;-69
2022/01/20 07:54:27;;;;;;;10.55;7.22;;;29.10;99.90;;;;;;5055018;28;20399;-71
2022/01/20 07:56:53;;;;;;;11.45;7.95;;;29.10;99.90;;;;;;5035359;28;20034;-71
2022/01/20 07:59:20;;;;;;;10.48;7.68;;;29.10;99.90;;;;;;5045953;28;20429;-71
2022/01/20 08:01:47;;;;;;;11.57;7.97;;;29.10;99.90;;;;;;5055052;28;20045;-71
2022/01/20 08:04:13;;;;;;;13.10;8.15;;;29.10;99.90;;;;;;5054626;28;20017;-71
2022/01/20 08:06:40;;;;;;;10.77;6.47;;;29.10;99.90;;;;;;5054883;28;20475;-70
2022/01/20 08:09:08;;;;;;;11.32;7.60;;;29.10;99.90;;;;;;5055395;28;20025;-72
2022/01/20 08:11:36;;;;;;;20.25;13.05;;;29.10;99.90;;;;;;5055045;28;20021;-73
2022/01/20 08:14:02;;;;;;;45.47;28.95;;;29.10;99.90;;;;;;5054773;28;20117;-73
2022/01/20 08:16:29;;;;;;;52.50;35.88;;;29.10;99.90;;;;;;5054467;28;20021;-73
2022/01/20 08:18:56;;;;;;;22.67;12.20;;;29.10;99.90;;;;;;5054624;28;20471;-75
2022/01/20 08:21:22;;;;;;;16.13;8.93;;;29.10;99.90;;;;;;5054696;28;20479;-71
2022/01/20 08:23:49;;;;;;;17.02;11.73;;;29.20;99.90;;;;;;5055033;28;20037;-71
2022/01/20 08:26:16;;;;;;;13.00;9.90;;;29.10;99.90;;;;;;5054798;28;20025;-71
2022/01/20 08:28:42;;;;;;;16.92;12.77;;;29.20;99.90;;;;;;5054694;28;20078;-70
2022/01/20 08:31:09;;;;;;;14.82;11.25;;;29.20;99.90;;;;;;5054374;28;20060;-72
2022/01/20 08:33:36;;;;;;;26.27;15.38;;;29.30;99.90;;;;;;5054462;28;20029;-70
2022/01/20 08:36:03;;;;;;;24.80;13.27;;;29.30;99.90;;;;;;5071200;28;20029;-71
2022/01/20 08:38:30;;;;;;;20.13;12.02;;;29.30;99.90;;;;;;5064571;28;20017;-70
2022/01/20 08:40:57;;;;;;;18.80;10.52;;;29.30;99.90;;;;;;5054198;28;20106;-72
2022/01/20 08:43:24;;;;;;;28.50;17.95;;;29.30;99.90;;;;;;5054552;28;20033;-71
2022/01/20 08:45:51;;;;;;;64.90;41.50;;;29.30;99.90;;;;;;5053766;28;20021;-73
2022/01/20 08:48:18;;;;;;;38.67;23.85;;;29.30;99.90;;;;;;5053728;28;20065;-72
2022/01/20 08:50:45;;;;;;;22.92;12.32;;;29.30;99.90;;;;;;5054013;28;20025;-71
2022/01/20 08:53:12;;;;;;;17.95;11.68;;;29.30;99.90;;;;;;5053867;28;20041;-69
2022/01/20 08:55:39;;;;;;;23.73;13.90;;;29.30;99.90;;;;;;5052651;28;20494;-71
2022/01/20 08:58:06;;;;;;;28.05;18.23;;;29.30;99.90;;;;;;5053951;28;20100;-70
2022/01/20 09:00:35;;;;;;;30.25;17.50;;;29.30;99.90;;;;;;5053932;28;20028;-72
2022/01/20 09:03:03;;;;;;;19.48;12.75;;;29.30;99.90;;;;;;5053081;28;20033;-70
2022/01/20 09:05:30;;;;;;;22.83;12.85;;;29.40;99.90;;;;;;5052708;28;20036;-70
2022/01/20 09:07:56;;;;;;;29.02;19.88;;;29.40;99.90;;;;;;5055022;28;20032;-71
2022/01/20 09:10:23;;;;;;;21.20;13.13;;;29.40;99.90;;;;;;5053933;28;20028;-71
2022/01/20 09:15:31;;;;;;;27.30;19.08;;;29.50;99.90;;;;;;5053554;28;20033;-70
2022/01/20 09:18:08;;;;;;;24.50;17.45;;;29.50;99.90;;;;;;5053813;28;20379;-72
2022/01/20 09:20:37;;;;;;;16.92;12.63;;;29.50;99.90;;;;;;5054172;28;20020;-70
2022/01/20 09:23:05;;;;;;;21.15;11.25;;;29.50;99.90;;;;;;5054116;28;20025;-70
2022/01/20 09:25:32;;;;;;;18.83;13.48;;;29.50;99.90;;;;;;5051263;28;20032;-70
2022/01/20 09:28:00;;;;;;;27.30;17.50;;;29.50;99.90;;;;;;5053308;28;20066;-71
2022/01/20 09:30:28;;;;;;;22.77;15.27;;;29.50;99.90;;;;;;5051585;28;20523;-70
2022/01/20 09:33:00;;;;;;;21.45;14.13;;;29.50;99.90;;;;;;5046888;28;20086;-73
2022/01/20 09:35:30;;;;;;;20.02;13.70;;;29.50;99.90;;;;;;5050687;28;20079;-70
2022/01/20 09:37:57;;;;;;;23.17;13.85;;;29.50;99.90;;;;;;5054736;28;20028;-72
2022/01/20 09:40:24;;;;;;;31.23;17.10;;;29.50;99.90;;;;;;5049627;28;20074;-70
2022/01/20 09:42:51;;;;;;;22.83;15.13;;;29.50;99.90;;;;;;5053127;28;20052;-71
2022/01/20 09:45:18;;;;;;;22.75;16.02;;;29.60;99.90;;;;;;5053803;28;20052;-71
2022/01/20 09:47:45;;;;;;;26.55;16.92;;;29.60;99.90;;;;;;5053631;28;20025;-71
2022/01/20 09:50:15;;;;;;;28.77;18.75;;;29.60;99.90;;;;;;5052184;28;20033;-72
2022/01/20 09:52:42;;;;;;;36.33;22.60;;;29.70;99.90;;;;;;5050247;28;20078;-72
2022/01/20 09:55:10;;;;;;;30.20;21.83;;;29.70;99.90;;;;;;5045789;28;20071;-73
2022/01/20 09:57:37;;;;;;;28.45;18.20;;;29.70;99.90;;;;;;5033735;28;20025;-72
2022/01/20 10:00:09;;;;;;;28.58;16.17;;;29.70;99.60;;;;;;5037416;28;20031;-71
2022/01/20 10:02:36;;;;;;;27.02;17.25;;;29.70;99.90;;;;;;5052168;28;20028;-72
2022/01/20 10:05:03;;;;;;;20.48;15.30;;;29.60;99.90;;;;;;5052478;28;20033;-71
2022/01/20 10:07:35;;;;;;;24.60;15.35;;;29.60;99.90;;;;;;5053032;28;20051;-71
2022/01/20 10:10:03;;;;;;;27.27;15.55;;;29.60;99.90;;;;;;5052951;28;20108;-70
2022/01/20 10:12:34;;;;;;;96.60;71.60;;;29.60;99.90;;;;;;5053337;28;20037;-70
2022/01/20 10:15:01;;;;;;;118.65;92.18;;;29.50;99.90;;;;;;5052457;28;20453;-71
2022/01/20 10:17:31;;;;;;;113.15;80.78;;;29.50;99.90;;;;;;5052201;28;20078;-75
2022/01/20 10:20:02;;;;;;;43.10;29.08;;;29.50;99.90;;;;;;5052000;28;20021;-72
2022/01/20 10:22:30;;;;;;;21.92;15.20;;;29.50;99.90;;;;;;5050017;28;20460;-73
2022/01/20 10:25:08;;;;;;;28.48;17.05;;;29.50;99.90;;;;;;5046774;28;20036;-73
2022/01/20 10:27:54;;;;;;;27.67;19.40;;;29.40;99.90;;;;;;5051898;28;20059;-72
2022/01/20 10:30:26;;;;;;;19.35;14.27;;;29.40;99.90;;;;;;5053314;28;20021;-68
2022/01/20 10:32:56;;;;;;;19.02;11.70;;;29.40;99.90;;;;;;5052694;28;20396;-72
2022/01/20 10:35:35;;;;;;;1079.05;684.35;;;29.40;99.90;;;;;;5053162;28;20511;-71
2022/01/20 10:38:13;;;;;;;287.25;182.85;;;29.40;99.90;;;;;;5051960;28;20040;-72
2022/01/20 10:40:51;;;;;;;71.90;45.55;;;29.30;99.90;;;;;;5051167;28;20440;-72
2022/01/20 10:43:31;;;;;;;56.70;45.17;;;29.30;99.90;;;;;;5053619;28;20025;-71
2022/01/20 10:46:10;;;;;;;59.05;43.05;;;29.30;99.90;;;;;;5052807;28;20033;-70
2022/01/20 10:48:38;;;;;;;16.25;12.25;;;29.30;99.90;;;;;;5046627;28;20532;-71
2022/01/20 10:51:20;;;;;;;19.20;12.20;;;29.20;99.90;;;;;;5033181;28;20025;-69
2022/01/20 10:53:58;;;;;;;22.00;12.95;;;29.10;99.90;;;;;;5039531;28;20076;-68
2022/01/20 10:56:25;;;;;;;23.23;13.90;;;29.10;99.90;;;;;;5051988;28;20060;-68
2022/01/20 10:58:53;;;;;;;20.27;11.20;;;29.00;99.90;;;;;;5052473;28;20021;-69
2022/01/20 11:01:20;;;;;;;25.55;15.35;;;29.00;99.90;;;;;;5052479;28;20032;-69
2022/01/20 11:03:47;;;;;;;28.17;19.33;;;29.00;99.90;;;;;;5052641;28;20067;-68
2022/01/20 11:06:14;;;;;;;23.73;15.30;;;29.00;99.90;;;;;;5052173;28;20383;-68
2022/01/20 11:08:43;;;;;;;18.55;12.40;;;28.90;99.90;;;;;;5052352;28;20037;-72
2022/01/20 11:11:10;;;;;;;24.83;13.07;;;28.90;99.90;;;;;;5052224;28;20107;-72
2022/01/20 11:13:37;;;;;;;27.88;13.95;;;28.80;99.90;;;;;;5052050;28;20388;-66
2022/01/20 11:16:04;;;;;;;23.50;13.50;;;28.80;99.90;;;;;;5051165;28;20038;-67
2022/01/20 11:18:31;;;;;;;29.08;18.23;;;28.80;99.90;;;;;;5051701;28;20441;-66
2022/01/20 11:20:59;;;;;;;26.92;16.20;;;28.80;99.90;;;;;;5053326;28;20032;-67
2022/01/20 11:23:40;;;;;;;26.60;15.32;;;28.70;99.90;;;;;;5055935;28;20028;-66
2022/01/20 11:26:07;;;;;;;27.02;16.75;;;28.80;99.90;;;;;;5055712;28;20399;-66
2022/01/20 11:28:34;;;;;;;35.25;21.88;;;28.70;99.90;;;;;;5055401;28;20029;-66
2022/01/20 11:31:07;;;;;;;46.90;28.73;;;28.70;99.90;;;;;;5055505;28;20068;-65
2022/01/20 11:33:42;;;;;;;54.00;31.40;;;28.70;99.90;;;;;;5055359;28;20056;-65
2022/01/20 11:36:20;;;;;;;50.28;29.25;;;28.70;99.90;;;;;;5055483;28;20482;-66
2022/01/20 11:38:49;;;;;;;55.90;27.13;;;28.70;99.90;;;;;;5055219;28;20467;-66
2022/01/20 11:41:17;;;;;;;49.45;29.33;;;28.60;99.90;;;;;;5054913;28;20029;-65
2022/01/20 11:43:46;;;;;;;44.10;27.77;;;28.60;99.90;;;;;;5055422;28;20017;-67
2022/01/20 11:46:16;;;;;;;46.95;25.83;;;28.60;99.90;;;;;;5054695;28;20059;-67
2022/01/20 11:48:50;;;;;;;38.75;24.63;;;28.50;99.90;;;;;;5054747;28;20540;-66
2022/01/20 11:51:18;;;;;;;55.28;27.45;;;28.50;99.90;;;;;;5054854;28;20029;-67
2022/01/20 11:54:03;;;;;;;50.28;27.38;;;28.50;99.90;;;;;;5054201;28;20513;-66
2022/01/20 11:56:33;;;;;;;44.25;25.23;;;28.40;99.90;;;;;;5056424;28;20103;-67
2022/01/20 11:59:00;;;;;;;37.30;22.67;;;28.50;99.90;;;;;;5055076;28;20025;-66
2022/01/20 12:01:29;;;;;;;48.22;26.05;;;28.50;99.90;;;;;;5054927;28;20025;-66
2022/01/20 12:03:57;;;;;;;130.52;106.80;;;28.50;99.90;;;;;;5055003;28;20029;-66
2022/01/20 12:06:25;;;;;;;405.38;259.55;;;28.40;99.90;;;;;;5054657;28;20075;-66
2022/01/20 12:08:54;;;;;;;72.78;46.55;;;28.40;99.90;;;;;;5054853;28;20025;-67
2022/01/20 12:11:22;;;;;;;75.40;45.53;;;28.40;99.90;;;;;;5053132;28;20035;-66
2022/01/20 12:13:51;;;;;;;64.85;38.20;;;28.30;99.90;;;;;;5053685;28;20028;-65
2022/01/20 12:16:24;;;;;;;124.95;93.40;;;28.30;99.90;;;;;;5055082;28;20108;-66
2022/01/20 12:18:55;;;;;;;43.40;27.00;;;28.30;99.90;;;;;;5052218;28;20028;-66
2022/01/20 12:21:23;;;;;;;81.50;52.30;;;28.30;99.90;;;;;;5054651;28;20052;-65
2022/01/20 12:23:53;;;;;;;55.85;34.03;;;28.30;99.90;;;;;;5052229;28;20468;-65
2022/01/20 12:26:20;;;;;;;62.63;39.38;;;28.20;99.90;;;;;;5054539;28;20029;-66
2022/01/20 12:28:47;;;;;;;49.83;32.42;;;28.20;99.90;;;;;;5054824;28;20021;-65
2022/01/20 12:31:14;;;;;;;53.63;35.75;;;28.10;99.90;;;;;;5054388;28;20025;-66
2022/01/20 12:33:46;;;;;;;70.85;47.25;;;28.20;99.90;;;;;;5055136;28;20100;-66
2022/01/20 12:36:17;;;;;;;65.90;37.88;;;28.10;99.90;;;;;;5055051;28;20037;-65
2022/01/20 12:38:49;;;;;;;52.55;30.05;;;28.00;99.90;;;;;;5054783;28;20096;-66
2022/01/20 12:41:17;;;;;;;46.42;27.25;;;28.00;99.90;;;;;;5055412;28;20052;-66
2022/01/20 12:43:53;;;;;;;40.70;25.55;;;27.90;99.90;;;;;;5054795;28;20037;-65
2022/01/20 12:46:23;;;;;;;55.50;33.97;;;27.80;99.90;;;;;;5051676;28;20483;-66
2022/01/20 12:49:01;;;;;;;51.00;31.85;;;27.80;99.90;;;;;;5051932;28;20067;-65
2022/01/20 12:51:34;;;;;;;45.72;30.05;;;27.90;99.90;;;;;;5050838;28;20033;-65
2022/01/20 12:54:12;;;;;;;45.38;27.65;;;27.90;99.90;;;;;;5050571;28;20072;-65
2022/01/20 12:56:46;;;;;;;40.67;22.55;;;27.90;99.90;;;;;;5053347;28;20120;-65
2022/01/20 12:59:20;;;;;;;42.38;26.95;;;27.80;99.90;;;;;;5053982;28;20040;-65
2022/01/20 13:01:49;;;;;;;40.78;25.42;;;27.80;99.90;;;;;;5051429;28;20017;-64
2022/01/20 13:04:17;;;;;;;42.55;22.48;;;27.80;99.90;;;;;;5053718;28;20025;-65
2022/01/20 13:06:52;;;;;;;38.78;23.45;;;27.90;99.90;;;;;;5053475;28;20510;-64
2022/01/20 13:09:21;;;;;;;43.67;24.35;;;27.90;99.90;;;;;;5050837;28;20463;-65
2022/01/20 13:11:59;;;;;;;30.55;18.67;;;27.90;99.90;;;;;;5053706;28;20078;-65
2022/01/20 13:14:33;;;;;;;44.85;26.83;;;27.80;99.90;;;;;;5051232;28;20051;-65
2022/01/20 13:17:00;;;;;;;54.50;32.72;;;27.80;99.90;;;;;;5053806;28;20459;-65
2022/01/20 13:19:35;;;;;;;44.35;26.70;;;27.70;99.90;;;;;;5053440;28;20043;-64
2022/01/20 13:22:04;;;;;;;50.05;28.15;;;27.70;99.90;;;;;;5051839;28;20509;-65
2022/01/20 13:24:33;;;;;;;48.50;29.92;;;27.70;99.90;;;;;;5049643;28;20033;-65
2022/01/20 13:27:01;;;;;;;43.42;27.80;;;27.70;99.90;;;;;;5052175;28;20240;-65
2022/01/20 13:29:44;;;;;;;53.35;31.02;;;27.70;99.90;;;;;;5059322;22;20059;-66
2022/01/20 13:32:12;;;;;;;54.03;31.35;;;27.70;99.90;;;;;;5020625;28;20045;-65
2022/01/20 13:34:40;;;;;;;58.10;35.85;;;27.70;99.90;;;;;;5017378;28;20118;-65